createdAt,value
2019-03-25T00:00:05.804Z,5.87
2019-03-25T00:02:34.009Z,5.00
2019-03-25T00:05:02.222Z,5.03
2019-03-25T00:07:30.400Z,4.90
2019-03-25T00:09:58.583Z,4.80
2019-03-25T00:12:26.804Z,4.90
2019-03-25T00:14:54.985Z,5.13
2019-03-25T00:17:23.229Z,4.90
2019-03-25T00:19:51.433Z,4.73
2019-03-25T00:22:19.620Z,4.70
2019-03-25T00:24:47.836Z,4.73
2019-03-25T00:27:16.079Z,4.30
2019-03-25T00:29:44.260Z,4.33
2019-03-25T00:32:12.447Z,4.60
2019-03-25T00:34:40.669Z,5.00
2019-03-25T00:37:08.853Z,4.73
2019-03-25T00:39:37.068Z,6.23
2019-03-25T00:42:05.244Z,4.70
2019-03-25T00:44:33.465Z,5.03
2019-03-25T00:47:01.702Z,4.80
2019-03-25T00:49:29.953Z,4.93
2019-03-25T00:51:58.130Z,4.80
2019-03-25T00:54:26.308Z,4.23
2019-03-25T00:56:54.568Z,4.47
2019-03-25T00:59:22.825Z,4.60
2019-03-25T01:01:51.000Z,4.30
2019-03-25T01:04:19.184Z,3.63
2019-03-25T01:06:47.372Z,4.73
2019-03-25T01:09:15.553Z,4.10
2019-03-25T01:11:49.048Z,4.33
2019-03-25T01:14:13.651Z,4.87
2019-03-25T01:16:41.901Z,4.23
2019-03-25T01:19:10.079Z,4.20
2019-03-25T01:21:38.262Z,4.30
2019-03-25T01:24:06.478Z,4.17
2019-03-25T01:26:34.762Z,4.60
2019-03-25T01:29:02.977Z,4.30
2019-03-25T01:31:31.177Z,4.27
2019-03-25T01:33:59.389Z,4.67
2019-03-25T01:36:27.607Z,4.50
2019-03-25T01:38:55.784Z,4.27
2019-03-25T01:41:23.993Z,4.17
2019-03-25T01:43:52.205Z,4.87
2019-03-25T01:46:20.380Z,4.40
2019-03-25T01:48:48.602Z,4.47
2019-03-25T01:51:16.779Z,4.07
2019-03-25T01:53:45.159Z,4.00
2019-03-25T01:56:13.340Z,4.10
2019-03-25T01:58:41.510Z,3.80
2019-03-25T02:01:09.706Z,4.50
2019-03-25T02:03:37.892Z,4.20
2019-03-25T02:06:06.084Z,4.60
2019-03-25T02:08:34.275Z,4.47
2019-03-25T02:11:02.464Z,4.03
2019-03-25T02:13:30.647Z,3.77
2019-03-25T02:15:58.854Z,4.20
2019-03-25T02:18:27.099Z,4.67
2019-03-25T02:20:55.321Z,3.90
2019-03-25T02:23:23.525Z,4.30
2019-03-25T02:25:51.741Z,3.93
2019-03-25T02:28:19.911Z,3.95
2019-03-25T02:30:48.255Z,3.40
2019-03-25T02:33:16.441Z,3.70
2019-03-25T02:35:44.675Z,3.67
2019-03-25T02:38:12.939Z,4.17
2019-03-25T02:40:41.130Z,3.90
2019-03-25T02:43:09.310Z,4.70
2019-03-25T02:45:37.485Z,4.20
2019-03-25T02:48:05.675Z,4.00
2019-03-25T02:50:34.739Z,4.00
2019-03-25T02:53:02.927Z,3.67
2019-03-25T02:55:41.259Z,4.20
2019-03-25T02:58:01.034Z,4.10
2019-03-25T03:00:30.761Z,4.67
2019-03-25T03:02:58.983Z,3.77
2019-03-25T03:05:27.177Z,4.53
2019-03-25T03:07:55.355Z,4.40
2019-03-25T03:10:23.544Z,3.57
2019-03-25T03:12:51.734Z,3.80
2019-03-25T03:15:19.904Z,4.03
2019-03-25T03:17:48.096Z,4.00
2019-03-25T03:20:16.292Z,4.10
2019-03-25T03:22:44.488Z,4.00
2019-03-25T03:25:12.752Z,3.70
2019-03-25T03:27:40.936Z,3.80
2019-03-25T03:30:09.382Z,3.67
2019-03-25T03:32:37.565Z,4.03
2019-03-25T03:35:06.514Z,4.20
2019-03-25T03:37:34.712Z,3.60
2019-03-25T03:40:03.870Z,3.70
2019-03-25T03:42:34.603Z,4.30
2019-03-25T03:45:02.844Z,4.00
2019-03-25T03:47:31.037Z,4.33
2019-03-25T03:49:59.211Z,4.40
2019-03-25T03:52:27.412Z,4.00
2019-03-25T03:54:55.605Z,3.97
2019-03-25T03:57:24.052Z,4.10
2019-03-25T03:59:52.240Z,4.00
2019-03-25T04:02:20.415Z,4.57
2019-03-25T04:04:48.628Z,4.03
2019-03-25T04:07:16.830Z,3.50
2019-03-25T04:09:45.033Z,4.57
2019-03-25T04:12:13.226Z,4.17
2019-03-25T04:14:41.412Z,4.00
2019-03-25T04:17:09.628Z,4.07
2019-03-25T04:19:37.816Z,3.73
2019-03-25T04:22:05.984Z,4.95
2019-03-25T04:24:34.219Z,4.47
2019-03-25T04:27:02.435Z,4.27
2019-03-25T04:29:30.698Z,4.83
2019-03-25T04:31:58.921Z,4.57
2019-03-25T04:34:27.180Z,4.33
2019-03-25T04:36:55.402Z,4.20
2019-03-25T04:39:23.621Z,4.50
2019-03-25T04:41:51.794Z,5.90
2019-03-25T04:44:20.017Z,4.80
2019-03-25T04:46:48.229Z,4.33
2019-03-25T04:49:16.442Z,4.90
2019-03-25T04:51:45.004Z,4.10
2019-03-25T04:54:13.409Z,4.53
2019-03-25T04:56:41.629Z,4.40
2019-03-25T04:59:09.868Z,4.20
2019-03-25T05:01:38.081Z,4.70
2019-03-25T05:04:07.892Z,3.60
2019-03-25T05:06:36.105Z,4.80
2019-03-25T05:09:05.085Z,4.50
2019-03-25T05:11:33.257Z,5.63
2019-03-25T05:14:01.453Z,4.43
2019-03-25T05:16:29.665Z,4.97
2019-03-25T05:18:57.868Z,4.60
2019-03-25T05:21:26.110Z,4.83
2019-03-25T05:23:54.284Z,5.33
2019-03-25T05:26:22.460Z,4.80
2019-03-25T05:28:50.640Z,4.77
2019-03-25T05:31:18.820Z,5.60
2019-03-25T05:33:47.008Z,5.40
2019-03-25T05:36:15.194Z,5.57
2019-03-25T05:38:43.405Z,4.63
2019-03-25T05:41:11.580Z,5.13
2019-03-25T05:43:39.917Z,4.90
2019-03-25T05:46:08.121Z,5.33
2019-03-25T05:48:36.325Z,5.13
2019-03-25T05:51:04.540Z,5.93
2019-03-25T05:53:32.723Z,5.90
2019-03-25T05:56:00.954Z,5.80
2019-03-25T05:58:29.194Z,5.10
2019-03-25T06:00:57.396Z,4.70
2019-03-25T06:03:25.613Z,5.80
2019-03-25T06:05:53.787Z,6.07
2019-03-25T06:08:22.005Z,5.33
2019-03-25T06:10:50.183Z,7.40
2019-03-25T06:13:18.389Z,7.70
2019-03-25T06:15:46.656Z,8.17
2019-03-25T06:18:14.858Z,7.60
2019-03-25T06:20:43.063Z,7.97
2019-03-25T06:23:11.236Z,7.40
2019-03-25T06:25:39.491Z,8.63
2019-03-25T06:28:07.743Z,6.70
2019-03-25T06:30:35.956Z,6.70
2019-03-25T06:33:12.385Z,7.33
2019-03-25T06:35:34.048Z,6.63
2019-03-25T06:38:02.333Z,7.30
2019-03-25T06:40:30.537Z,8.00
2019-03-25T06:42:58.981Z,7.50
2019-03-25T06:45:27.232Z,8.20
2019-03-25T06:47:55.447Z,6.60
2019-03-25T06:50:23.668Z,8.60
2019-03-25T06:52:51.839Z,8.17
2019-03-25T06:55:20.054Z,8.60
2019-03-25T06:57:48.261Z,8.93
2019-03-25T07:00:16.745Z,8.33
2019-03-25T07:02:44.954Z,8.67
2019-03-25T07:05:13.220Z,9.40
2019-03-25T07:07:41.420Z,10.47
2019-03-25T07:10:09.775Z,8.90
2019-03-25T07:12:37.960Z,9.20
2019-03-25T07:15:09.024Z,9.70
2019-03-25T07:17:37.200Z,9.50
2019-03-25T07:20:09.135Z,8.50
2019-03-25T07:22:37.409Z,9.90
2019-03-25T07:25:05.956Z,9.60
2019-03-25T07:27:36.931Z,10.13
2019-03-25T07:30:07.760Z,10.10
2019-03-25T07:32:36.052Z,9.50
2019-03-25T07:35:05.977Z,10.97
2019-03-25T07:37:34.229Z,10.90
2019-03-25T07:40:02.746Z,10.05
2019-03-25T07:42:30.953Z,9.30
2019-03-25T07:44:59.141Z,9.00
2019-03-25T07:47:27.325Z,9.70
2019-03-25T07:49:55.549Z,10.03
2019-03-25T07:52:23.741Z,10.23
2019-03-25T07:54:51.962Z,9.00
2019-03-25T07:57:20.204Z,10.47
2019-03-25T07:59:48.429Z,10.05
2019-03-25T08:02:16.646Z,10.40
2019-03-25T08:04:44.859Z,9.90
2019-03-25T08:07:13.094Z,10.27
2019-03-25T08:09:41.333Z,11.60
2019-03-25T08:12:09.520Z,10.50
2019-03-25T08:14:37.861Z,9.33
2019-03-25T08:17:06.138Z,10.10
2019-03-25T08:19:34.404Z,9.10
2019-03-25T08:22:02.671Z,8.85
2019-03-25T08:24:30.896Z,9.85
2019-03-25T08:26:59.089Z,8.60
2019-03-25T08:29:27.305Z,7.00
2019-03-25T08:31:55.577Z,8.60
2019-03-25T08:34:23.772Z,8.20
2019-03-25T08:36:52.049Z,6.90
2019-03-25T08:39:20.243Z,8.03
2019-03-25T08:41:48.469Z,7.33
2019-03-25T08:44:16.677Z,7.60
2019-03-25T08:46:44.926Z,8.17
2019-03-25T08:49:13.177Z,8.23
2019-03-25T08:51:41.377Z,8.30
2019-03-25T08:54:09.592Z,7.37
2019-03-25T08:56:37.814Z,6.90
2019-03-25T08:59:06.017Z,7.40
2019-03-25T09:01:34.222Z,7.17
2019-03-25T09:04:02.401Z,6.80
2019-03-25T09:06:30.577Z,6.73
2019-03-25T09:08:58.805Z,6.63
2019-03-25T09:11:27.016Z,7.47
2019-03-25T09:13:55.203Z,6.57
2019-03-25T09:16:23.418Z,6.80
2019-03-25T09:18:51.701Z,5.93
2019-03-25T09:21:20.844Z,5.37
2019-03-25T09:23:49.049Z,6.40
2019-03-25T09:26:17.260Z,6.60
2019-03-25T09:28:45.472Z,6.33
2019-03-25T09:31:13.932Z,5.87
2019-03-25T09:33:42.115Z,7.00
2019-03-25T09:36:11.000Z,6.03
2019-03-25T09:38:39.171Z,7.10
2019-03-25T09:41:07.421Z,6.60
2019-03-25T09:43:35.651Z,5.37
2019-03-25T09:46:03.904Z,5.70
2019-03-25T09:48:32.109Z,5.43
2019-03-25T09:51:00.368Z,6.07
2019-03-25T09:53:28.560Z,4.80
2019-03-25T09:55:56.759Z,5.10
2019-03-25T09:58:35.684Z,4.43
2019-03-25T10:00:54.869Z,3.80
2019-03-25T10:03:23.098Z,4.00
2019-03-25T10:05:51.298Z,3.80
2019-03-25T10:08:19.508Z,4.23
2019-03-25T10:10:47.725Z,3.50
2019-03-25T10:13:18.145Z,3.10
2019-03-25T10:15:48.445Z,3.03
2019-03-25T10:18:18.121Z,2.70
2019-03-25T10:20:46.296Z,2.40
2019-03-25T10:23:14.483Z,2.93
2019-03-25T10:25:42.725Z,2.87
2019-03-25T10:28:10.966Z,3.17
2019-03-25T10:30:39.170Z,3.13
2019-03-25T10:33:07.348Z,3.37
2019-03-25T10:35:35.585Z,3.37
2019-03-25T10:38:03.793Z,3.47
2019-03-25T10:40:31.997Z,2.70
2019-03-25T10:43:00.305Z,3.10
2019-03-25T10:45:28.509Z,3.77
2019-03-25T10:47:56.680Z,3.30
2019-03-25T10:50:24.895Z,3.43
2019-03-25T10:52:53.100Z,3.67
2019-03-25T10:55:21.336Z,3.63
2019-03-25T10:57:49.580Z,4.10
2019-03-25T11:00:18.182Z,3.23
2019-03-25T11:02:46.361Z,3.67
2019-03-25T11:05:14.847Z,2.80
2019-03-25T11:10:11.700Z,2.73
2019-03-25T11:12:39.872Z,2.50
2019-03-25T11:15:08.661Z,2.70
2019-03-25T11:17:37.206Z,3.10
2019-03-25T11:20:06.950Z,2.13
2019-03-25T11:22:35.161Z,2.23
2019-03-25T11:25:04.733Z,2.23
2019-03-25T11:27:32.915Z,2.53
2019-03-25T11:30:01.116Z,2.40
2019-03-25T11:32:29.333Z,2.70
2019-03-25T11:34:57.541Z,2.20
2019-03-25T11:37:25.756Z,2.47
2019-03-25T11:39:53.919Z,2.17
2019-03-25T11:42:22.128Z,2.40
2019-03-25T11:44:50.332Z,2.30
2019-03-25T11:47:18.554Z,1.90
2019-03-25T11:49:46.830Z,1.83
2019-03-25T11:52:15.053Z,1.70
2019-03-25T11:54:43.232Z,1.57
2019-03-25T11:57:11.452Z,1.70
2019-03-25T11:59:39.640Z,1.55
2019-03-25T12:02:17.071Z,1.70
2019-03-25T12:04:39.352Z,1.93
2019-03-25T12:07:07.564Z,2.17
2019-03-25T12:09:35.841Z,2.20
2019-03-25T12:12:04.048Z,2.10
2019-03-25T12:14:32.236Z,2.10
2019-03-25T12:17:00.440Z,2.20
2019-03-25T12:19:28.688Z,2.23
2019-03-25T12:21:56.933Z,2.00
2019-03-25T12:24:25.137Z,2.10
2019-03-25T12:26:53.346Z,2.73
2019-03-25T12:29:29.588Z,1.93
2019-03-25T12:31:51.429Z,2.17
2019-03-25T12:34:19.711Z,2.13
2019-03-25T12:36:48.175Z,1.97
2019-03-25T12:39:16.441Z,1.80
2019-03-25T12:41:44.679Z,1.90
2019-03-25T12:44:12.887Z,2.13
2019-03-25T12:46:41.090Z,1.97
2019-03-25T12:49:09.340Z,1.53
2019-03-25T12:51:37.557Z,1.70
2019-03-25T12:54:05.736Z,1.40
2019-03-25T12:56:33.972Z,1.60
2019-03-25T12:59:02.167Z,1.50
2019-03-25T13:06:25.213Z,1.50
2019-03-25T13:08:53.421Z,1.70
2019-03-25T13:11:21.632Z,1.50
2019-03-25T13:13:49.915Z,1.60
2019-03-25T13:16:18.127Z,1.60
2019-03-25T13:18:46.384Z,1.80
2019-03-25T13:21:15.017Z,1.60
2019-03-25T13:23:43.237Z,1.47
2019-03-25T13:26:11.401Z,1.30
2019-03-25T13:28:39.580Z,1.50
2019-03-25T13:31:07.758Z,1.20
2019-03-25T13:33:35.982Z,1.50
2019-03-25T13:36:04.579Z,1.30
2019-03-25T13:38:32.760Z,1.47
2019-03-25T13:41:00.981Z,1.63
2019-03-25T13:43:29.238Z,1.40
2019-03-25T13:46:05.300Z,1.70
2019-03-25T13:48:27.384Z,1.30
2019-03-25T13:50:55.657Z,1.33
2019-03-25T13:53:23.830Z,1.80
2019-03-25T13:55:52.039Z,1.80
2019-03-25T13:58:20.205Z,1.40
2019-03-25T14:00:48.421Z,1.40
2019-03-25T14:03:16.596Z,1.30
2019-03-25T14:05:44.773Z,1.50
2019-03-25T14:08:12.959Z,1.50
2019-03-25T14:10:41.197Z,1.60
2019-03-25T14:13:09.374Z,1.30
2019-03-25T14:15:37.624Z,1.13
2019-03-25T14:18:06.046Z,1.17
2019-03-25T14:20:34.271Z,0.90
2019-03-25T14:23:02.473Z,1.60
2019-03-25T14:25:30.677Z,1.30
2019-03-25T14:27:59.281Z,1.53
2019-03-25T14:30:28.184Z,1.30
2019-03-25T14:32:56.366Z,1.37
2019-03-25T14:35:24.535Z,1.37
2019-03-25T14:37:52.744Z,1.27
2019-03-25T14:40:20.981Z,1.10
2019-03-25T14:42:49.213Z,1.20
2019-03-25T14:45:26.083Z,1.35
2019-03-25T14:47:47.369Z,1.60
2019-03-25T14:50:15.558Z,1.30
2019-03-25T14:52:43.765Z,1.57
2019-03-25T14:55:11.993Z,1.90
2019-03-25T14:57:40.248Z,1.97
2019-03-25T15:00:08.613Z,2.05
2019-03-25T15:02:36.855Z,2.10
2019-03-25T15:05:06.579Z,1.93
2019-03-25T15:07:34.860Z,2.30
2019-03-25T15:10:04.333Z,2.13
2019-03-25T15:12:32.536Z,2.30
2019-03-25T15:15:00.708Z,2.10
2019-03-25T15:17:28.905Z,2.00
2019-03-25T15:19:57.103Z,2.03
2019-03-25T15:22:25.281Z,1.90
2019-03-25T15:24:53.481Z,2.13
2019-03-25T15:27:21.691Z,2.40
2019-03-25T15:29:49.868Z,2.20
2019-03-25T15:32:18.754Z,1.70
2019-03-25T15:34:47.062Z,2.10
2019-03-25T15:37:15.260Z,2.03
2019-03-25T15:39:46.959Z,2.10
2019-03-25T15:42:13.335Z,2.40
2019-03-25T15:44:41.512Z,1.87
2019-03-25T15:47:09.755Z,1.70
2019-03-25T15:49:38.075Z,1.77
2019-03-25T15:52:07.144Z,1.80
2019-03-25T15:54:35.351Z,2.00
2019-03-25T15:57:03.541Z,1.60
2019-03-25T15:59:31.751Z,1.63
2019-03-25T16:01:59.940Z,1.73
2019-03-25T16:04:28.205Z,1.60
2019-03-25T16:06:56.396Z,1.80
2019-03-25T16:09:24.569Z,2.00
2019-03-25T16:11:52.792Z,1.87
2019-03-25T16:14:21.082Z,2.07
2019-03-25T16:16:49.253Z,1.70
2019-03-25T16:19:17.467Z,1.80
2019-03-25T16:21:45.706Z,2.37
2019-03-25T16:24:13.985Z,2.30
2019-03-25T16:26:42.161Z,1.87
2019-03-25T16:29:10.344Z,2.23
2019-03-25T16:31:38.609Z,2.10
2019-03-25T16:34:06.792Z,2.50
2019-03-25T16:36:35.004Z,2.30
2019-03-25T16:39:05.114Z,2.00
2019-03-25T16:41:33.392Z,2.23
2019-03-25T16:44:01.669Z,2.27
2019-03-25T16:46:29.865Z,1.90
2019-03-25T16:48:58.081Z,1.90
2019-03-25T16:51:26.296Z,2.20
2019-03-25T16:53:54.527Z,1.90
2019-03-25T16:56:22.760Z,2.83
2019-03-25T16:58:50.972Z,1.90
2019-03-25T17:01:19.148Z,2.23
2019-03-25T17:03:47.324Z,2.30
2019-03-25T17:06:15.523Z,1.87
2019-03-25T17:08:43.755Z,2.20
2019-03-25T17:11:12.009Z,2.65
2019-03-25T17:13:40.316Z,2.85
2019-03-25T17:16:08.565Z,2.20
2019-03-25T17:18:36.755Z,2.40
2019-03-25T17:21:05.847Z,2.97
2019-03-25T17:23:34.049Z,3.00
2019-03-25T17:26:02.220Z,2.73
2019-03-25T17:28:30.481Z,3.30
2019-03-25T17:30:58.657Z,2.60
2019-03-25T17:33:26.829Z,2.80
2019-03-25T17:35:55.063Z,3.27
2019-03-25T17:38:23.260Z,3.27
2019-03-25T17:40:51.477Z,3.43
2019-03-25T17:43:19.647Z,2.97
2019-03-25T17:45:47.851Z,3.87
2019-03-25T17:48:16.044Z,3.53
2019-03-25T17:50:44.231Z,3.13
2019-03-25T17:53:12.481Z,3.10
2019-03-25T17:55:40.706Z,2.50
2019-03-25T17:58:08.875Z,2.60
2019-03-25T18:00:44.792Z,2.80
2019-03-25T18:03:15.240Z,2.87
2019-03-25T18:05:42.902Z,3.07
2019-03-25T18:08:11.116Z,3.03
2019-03-25T18:10:39.313Z,3.70
2019-03-25T18:13:07.526Z,3.67
2019-03-25T18:15:35.736Z,3.73
2019-03-25T18:18:04.120Z,3.97
2019-03-25T18:20:32.330Z,3.93
2019-03-25T18:23:00.902Z,2.83
2019-03-25T18:25:29.084Z,3.07
2019-03-25T18:27:57.281Z,3.23
2019-03-25T18:30:31.861Z,3.40
2019-03-25T18:33:00.030Z,3.20
2019-03-25T18:35:28.214Z,3.37
2019-03-25T18:37:56.392Z,3.30
2019-03-25T18:40:24.568Z,2.83
2019-03-25T18:42:52.950Z,3.27
2019-03-25T18:45:21.137Z,2.80
2019-03-25T18:47:49.319Z,2.87
2019-03-25T18:50:17.502Z,3.00
2019-03-25T18:52:45.709Z,2.47
2019-03-25T18:55:13.888Z,3.20
2019-03-25T18:57:42.097Z,2.90
2019-03-25T19:00:11.863Z,3.00
2019-03-25T19:02:40.171Z,2.97
2019-03-25T19:05:08.622Z,2.73
2019-03-25T19:07:36.807Z,3.87
2019-03-25T19:10:06.390Z,3.33
2019-03-25T19:12:34.636Z,3.60
2019-03-25T19:15:03.220Z,2.80
2019-03-25T19:17:31.471Z,3.90
2019-03-25T19:19:59.708Z,2.87
2019-03-25T19:22:27.993Z,3.20
2019-03-25T19:24:56.190Z,2.37
2019-03-25T19:27:24.403Z,2.57
2019-03-25T19:29:52.641Z,2.30
2019-03-25T19:32:20.910Z,2.30
2019-03-25T19:34:49.203Z,2.37
2019-03-25T19:37:17.468Z,2.27
2019-03-25T19:39:46.681Z,2.30
2019-03-25T19:42:14.890Z,2.30
2019-03-25T19:44:43.167Z,2.40
2019-03-25T19:47:11.420Z,2.25
2019-03-25T19:49:39.696Z,2.60
2019-03-25T19:52:09.483Z,2.50
2019-03-25T19:54:37.868Z,2.20
2019-03-25T19:57:06.029Z,2.30
2019-03-25T19:59:34.267Z,3.33
2019-03-25T20:02:02.579Z,2.20
2019-03-25T20:04:30.868Z,2.70
2019-03-25T20:06:59.145Z,2.40
2019-03-25T20:09:28.231Z,2.83
2019-03-25T20:11:56.412Z,2.70
2019-03-25T20:14:24.622Z,2.37
2019-03-25T20:16:52.819Z,2.37
2019-03-25T20:19:20.992Z,2.40
2019-03-25T20:21:49.214Z,2.90
2019-03-25T20:24:17.510Z,2.40
2019-03-25T20:26:45.739Z,2.50
2019-03-25T20:29:13.996Z,2.60
2019-03-25T20:31:42.360Z,2.43
2019-03-25T20:34:11.563Z,2.30
2019-03-25T20:36:39.956Z,2.30
2019-03-25T20:39:09.305Z,2.63
2019-03-25T20:41:37.508Z,2.10
2019-03-25T20:44:05.771Z,2.33
2019-03-25T20:46:34.043Z,2.23
2019-03-25T20:49:02.334Z,2.57
2019-03-25T20:51:30.563Z,3.17
2019-03-25T20:54:00.222Z,2.80
2019-03-25T20:56:28.515Z,2.73
2019-03-25T20:58:56.856Z,2.70
2019-03-25T21:01:25.102Z,2.70
2019-03-25T21:03:53.352Z,2.80
2019-03-25T21:06:21.571Z,2.57
2019-03-25T21:08:49.818Z,2.80
2019-03-25T21:11:18.110Z,2.93
2019-03-25T21:13:46.361Z,2.83
2019-03-25T21:16:14.568Z,2.70
2019-03-25T21:18:42.800Z,3.13
2019-03-25T21:21:12.144Z,3.33
2019-03-25T21:23:40.444Z,3.20
2019-03-25T21:26:10.938Z,2.80
2019-03-25T21:28:38.534Z,3.10
2019-03-25T21:31:06.724Z,2.83
2019-03-25T21:33:34.989Z,2.93
2019-03-25T21:36:03.280Z,3.97
2019-03-25T21:38:31.578Z,3.07
2019-03-25T21:40:59.841Z,2.70
2019-03-25T21:43:28.188Z,2.97
2019-03-25T21:45:56.378Z,2.97
2019-03-25T21:48:24.613Z,3.13
2019-03-25T21:50:52.856Z,3.10
2019-03-25T21:53:21.999Z,3.43
2019-03-25T21:55:50.399Z,3.50
2019-03-25T21:58:18.701Z,2.90
2019-03-25T22:00:46.983Z,3.30
2019-03-25T22:03:15.197Z,3.43
2019-03-25T22:05:43.397Z,3.53
2019-03-25T22:08:11.576Z,3.10
2019-03-25T22:10:42.754Z,4.10
2019-03-25T22:13:09.702Z,4.40
2019-03-25T22:15:37.921Z,4.50
2019-03-25T22:18:06.113Z,4.10
2019-03-25T22:20:34.337Z,3.80
2019-03-25T22:23:02.508Z,4.30
2019-03-25T22:25:30.711Z,4.10
2019-03-25T22:27:58.919Z,3.90
2019-03-25T22:30:27.141Z,3.90
2019-03-25T22:32:55.376Z,4.10
2019-03-25T22:35:23.593Z,3.93
2019-03-25T22:37:51.767Z,3.93
2019-03-25T22:40:19.979Z,4.23
2019-03-25T22:42:48.185Z,4.73
2019-03-25T22:45:17.924Z,5.50
2019-03-25T22:47:46.134Z,5.23
2019-03-25T22:50:15.882Z,5.10
2019-03-25T22:52:44.093Z,5.40
2019-03-25T22:55:12.268Z,5.90
2019-03-25T22:57:40.444Z,5.03
2019-03-25T23:00:08.653Z,5.80
2019-03-25T23:02:36.868Z,5.87
2019-03-25T23:05:05.953Z,5.80
2019-03-25T23:07:34.167Z,6.00
2019-03-25T23:10:02.429Z,6.00
2019-03-25T23:12:30.617Z,6.87
2019-03-25T23:14:58.803Z,6.57
2019-03-25T23:17:26.976Z,5.50
2019-03-25T23:19:55.197Z,7.20
2019-03-25T23:22:23.367Z,6.57
2019-03-25T23:24:51.581Z,6.03
2019-03-25T23:27:19.757Z,6.33
2019-03-25T23:29:47.948Z,6.53
2019-03-25T23:32:16.155Z,6.90
2019-03-25T23:34:44.374Z,7.30
2019-03-25T23:37:12.589Z,6.60
2019-03-25T23:39:40.777Z,6.30
2019-03-25T23:42:08.953Z,5.80
2019-03-25T23:44:37.174Z,6.33
2019-03-25T23:47:05.377Z,6.87
2019-03-25T23:49:33.554Z,6.50
2019-03-25T23:52:01.770Z,5.87
2019-03-25T23:54:29.943Z,5.60
2019-03-25T23:56:58.156Z,5.60
2019-03-25T23:59:26.365Z,6.17
